Flight Track Log - Related Links

Times and Time Zones

All times are in EDT time to prevent confusion due to time zone crossing. See the DAL3606 flight status page for this flight to view local times or setup timezone preferences in your user account.

Time Position Orientation Groundspeed Altitude Reporting Facility
EDT Latitude Longitude Course Direction KTS MPH feet Rate Location/Type
Fri 08:58:14 AM 33.6333 -84.3833 53° Northeast 143 165 3,300  Level Atlanta TRACON
Fri 08:59:14 AM 33.6333 -84.3167 90° East 232 267 5,200 2,400 Climbing Atlanta TRACON
Fri 09:00:00 AM 33.8788 -84.1402 54° Northeast  Level Estimated
Fri 09:00:14 AM 33.6333 -84.2333 90° East 249 287 8,100  Level Atlanta TRACON
Fri 09:01:00 AM 33.8742 -84.0036 92° East  Level FlightAware Approximate
Fri 09:01:49 AM 33.6356 -84.1111 89° East 275 316 10,700  Level Atlanta Center
Fri 09:02:00 AM 33.8696 -83.8671 92° East  Level FlightAware Approximate
Fri 09:02:49 AM 33.6919 -84.0264 51° Northeast 299 344 12,500  Level Atlanta Center
Fri 09:03:00 AM 33.9518 -83.7729 53° Northeast  Level Estimated
Fri 09:03:49 AM 33.7586 -83.9439 46° Northeast 327 376 14,100  Level Atlanta Center
Fri 09:04:49 AM 33.8253 -83.8536 48° Northeast 353 406 15,500 1,450 Climbing Atlanta Center
Fri 09:05:49 AM 33.8961 -83.7611 47° Northeast 365 420 17,000 1,450 Climbing Atlanta Center
Fri 09:06:49 AM 33.9711 -83.6581 49° Northeast 373 429 18,400 1,150 Climbing Atlanta Center
Fri 09:07:49 AM 34.0333 -83.5525 55° Northeast 378 435 19,300 900 Climbing Atlanta Center
Fri 09:08:49 AM 34.0997 -83.4517 51° Northeast 383 441 20,200 750 Climbing Atlanta Center
Fri 09:09:49 AM 34.1681 -83.3408 53° Northeast 389 448 20,800 550 Climbing Atlanta Center
Fri 09:10:49 AM 34.2319 -83.2372 53° Northeast 389 448 21,300 500 Climbing Atlanta Center
Fri 09:11:49 AM 34.3044 -83.1286 51° Northeast 394 453 21,800 500 Climbing Atlanta Center
Fri 09:12:49 AM 34.3722 -83.0169 54° Northeast 401 461 22,300 500 Climbing Atlanta Center
Fri 09:13:49 AM 34.4381 -82.9028 55° Northeast 406 467 22,800 550 Climbing Atlanta Center
Fri 09:14:49 AM 34.5100 -82.7908 52° Northeast 412 474 23,400 550 Climbing Atlanta Center
Fri 09:15:49 AM 34.5819 -82.6764 53° Northeast 422 486 23,900 450 Climbing Atlanta Center
Fri 09:16:49 AM 34.6453 -82.5744 53° Northeast 413 475 24,300 1,550 Climbing Atlanta Center
Fri 09:17:49 AM 34.7150 -82.4569 54° Northeast 425 489 27,000 500 Climbing Atlanta Center
Fri 09:18:49 AM 34.7883 -82.3342 54° Northeast 431 496 25,300 -600 Descending Atlanta Center
Fri 09:19:49 AM 34.8639 -82.2111 53° Northeast 436 502 25,800 500 Climbing Atlanta Center
Fri 09:20:49 AM 34.9472 -82.0800 52° Northeast 441 507 26,300 550 Climbing Atlanta Center
Fri 09:21:49 AM 35.0225 -81.9539 54° Northeast 447 514 26,900 350 Climbing Atlanta Center
Fri 09:22:49 AM 35.0911 -81.8228 57° Northeast 458 527 27,000 50 Climbing Atlanta Center
Fri 09:23:49 AM 35.1617 -81.6886 57° Northeast 466 536 27,000  Level Atlanta Center
Fri 09:24:49 AM 35.2342 -81.5519 57° Northeast 476 548 27,000  Level Atlanta Center
Fri 09:25:49 AM 35.3083 -81.4122 57° Northeast 484 557 27,000  Level Atlanta Center
Fri 09:26:49 AM 35.3783 -81.2750 58° Northeast 484 557 27,000  Level Atlanta Center
Fri 09:27:49 AM 35.4522 -81.1350 57° Northeast 492 566 27,000  Level Atlanta Center
Fri 09:28:49 AM 35.5219 -80.9972 58° Northeast 487 560 27,000  Level Atlanta Center
Fri 09:29:49 AM 35.5958 -80.8617 56° Northeast 482 555 27,000  Level Atlanta Center
Fri 09:30:49 AM 35.6653 -80.7261 58° Northeast 477 549 27,000  Level Atlanta Center
Fri 09:31:49 AM 35.7344 -80.5903 58° Northeast 471 542 27,000  Level Atlanta Center
Fri 09:32:49 AM 35.8056 -80.4514 58° Northeast 471 542 27,000  Level Atlanta Center
Fri 09:33:49 AM 35.8747 -80.3178 57° Northeast 471 542 27,000  Level Atlanta Center
Fri 09:34:49 AM 35.9414 -80.1789 59° Northeast 465 535 27,000  Level Atlanta Center
Fri 09:36:59 AM 36.0997 -79.8878 56° Northeast 484 557 27,000  Level Washington Center
Fri 09:37:59 AM 36.1733 -79.7528 56° Northeast 477 549 27,000  Level Washington Center
Fri 09:39:01 AM 36.2422 -79.6328 55° Northeast 477 549 27,000 -443 Level Washington Center
Fri 09:40:01 AM 36.3267 -79.4825 55° Northeast 477 549 26,100 -1,017 Descending Washington Center
Fri 09:40:59 AM 36.3928 -79.3644 55° Northeast 477 549 25,000 -555 Descending Washington Center
Fri 09:42:00 AM 36.4636 -79.2336 56° Northeast 471 542 25,000  Level Washington Center
Fri 09:43:01 AM 36.5472 -79.0953 53° Northeast 461 531 25,000  Level Washington Center
Fri 09:43:59 AM 36.6197 -78.9639 55° Northeast 461 531 25,000  Level Washington Center
Fri 09:44:59 AM 36.6903 -78.8272 57° Northeast 461 531 25,000  Level Washington Center
Fri 09:46:01 AM 36.7625 -78.6981 55° Northeast 461 531 25,000  Level Washington Center
Fri 09:46:59 AM 36.8283 -78.5786 55° Northeast 461 531 25,000  Level Washington Center
Fri 09:47:59 AM 36.8981 -78.4489 56° Northeast 461 531 25,000 -200 Level Washington Center
Fri 09:48:59 AM 36.9964 -78.3458 40° Northeast 455 524 24,600 -446 Descending Washington Center
Fri 09:50:00 AM 37.0989 -78.2506 37° Northeast 445 512 24,100 -496 Descending Washington Center
Fri 09:51:00 AM 37.1861 -78.1650 38° Northeast 445 512 23,600 -496 Descending Washington Center
Fri 09:52:01 AM 37.2928 -78.0614 38° Northeast 445 512 23,100 -504 Descending Washington Center
Fri 09:52:59 AM 37.3886 -77.9653 39° Northeast 440 506 22,600 -508 Descending Washington Center
Fri 09:53:59 AM 37.4864 -77.8714 37° Northeast 440 506 22,100 -300 Descending Washington Center
Fri 09:54:59 AM 37.5878 -77.7933 31° Northeast 440 506 22,000 -942 Descending Washington Center
Fri 09:56:00 AM 37.6953 -77.7333 24° Northeast 429 494 20,200 -1,869 Descending Washington Center
Fri 09:57:01 AM 37.7944 -77.6731 26° Northeast 403 464 18,200 -1,785 Descending Washington Center
Fri 09:58:01 AM 37.8892 -77.6206 24° Northeast 383 441 16,600 -1,866 Descending Washington Center
Fri 09:59:00 AM 37.9797 -77.5650 26° Northeast 368 423 14,500 -1,866 Descending Washington Center
Fri 10:00:00 AM 38.0808 -77.5094 23° Northeast 353 406 12,900 -1,983 Descending Washington Center
Fri 10:01:01 AM 38.1544 -77.4667 25° Northeast 341 392 10,500 -2,017 Descending Washington Center
Fri 10:01:59 AM 38.2239 -77.4181 29° Northeast 308 354 8,900 -1,765 Descending Washington Center
Fri 10:03:00 AM 38.2892 -77.3825 23° Northeast 274 315 7,000 -1,820 Descending Washington Center
Fri 10:04:01 AM 38.3642 -77.3792 North 260 299 5,200 -1,513 Descending Washington Center
Fri 10:04:59 AM 38.4394 -77.3756 North 260 299 4,000 -610 Descending Washington Center
Fri 10:05:59 AM 38.5125 -77.3719 North 260 299 4,000 -50 Level Washington Center
Fri 10:07:00 AM 38.5856 -77.3686 North 260 299 3,900 -49 Descending Washington Center
Fri 10:08:01 AM 38.6586 -77.3650 North 260 299 3,900 46 Level Washington Center
Fri 10:09:10 AM 38.7500 -77.3667 359° North 264 304 4,000 47 Climbing Potomac TRACON
Fri 10:10:10 AM 38.8333 -77.3500 North 263 303 4,000 -52 Level Potomac TRACON
Fri 10:11:05 AM 38.9000 -77.3500 360° North 261 300 3,900 -522 Descending Potomac TRACON
Fri 10:12:05 AM 38.9667 -77.3500 360° North 248 285 3,000 -900 Descending Potomac TRACON
Fri 10:13:05 AM 39.0333 -77.3500 360° North 204 235 2,100 -900 Descending Potomac TRACON

Login

Don't have an account? Register now (free) for customized features, flight alerts, and more!